Time;durP1;ratioP1;P1;durP2;ratioP2;P2;SDS_P1;SDS_P2;PMS_P1;PMS_P2;Temp;Humidity;BMP_temperature;BMP_pressure;BME280_temperature;BME280_humidity;BME280_pressure;Samples;Min_cycle;Max_cycle;Signal;HPM_P1;HPM_P2
2021/08/22 00:02:02;;;;;;;15.70;12.05;;;29.00;99.90;;;;;;4166498;28;20052;-68
2021/08/22 00:04:08;;;;;;;17.95;12.82;;;29.10;99.90;;;;;;4168551;28;20056;-69
2021/08/22 00:06:13;;;;;;;17.30;11.50;;;29.10;99.90;;;;;;4171925;28;20042;-68
2021/08/22 00:08:18;;;;;;;13.18;11.35;;;29.10;99.90;;;;;;4171103;28;20088;-68
2021/08/22 00:10:23;;;;;;;16.45;12.23;;;29.20;99.90;;;;;;4172210;28;20045;-69
2021/08/22 00:12:28;;;;;;;14.82;11.18;;;29.20;99.90;;;;;;4172160;28;20048;-69
2021/08/22 00:14:33;;;;;;;17.38;11.30;;;29.20;99.90;;;;;;4167271;28;20053;-68
2021/08/22 00:16:38;;;;;;;13.98;10.52;;;29.20;99.90;;;;;;4166563;28;20057;-68
2021/08/22 00:18:42;;;;;;;14.93;11.40;;;29.30;99.90;;;;;;4168309;28;20088;-69
2021/08/22 00:20:47;;;;;;;15.45;11.95;;;29.30;99.90;;;;;;4167684;28;20044;-67
2021/08/22 00:22:52;;;;;;;14.57;11.40;;;29.40;99.90;;;;;;4168058;28;20068;-67
2021/08/22 00:24:57;;;;;;;15.73;11.32;;;29.40;99.90;;;;;;4165412;28;20033;-68
2021/08/22 00:27:02;;;;;;;14.00;11.27;;;29.50;99.90;;;;;;4166483;28;20068;-68
2021/08/22 00:29:08;;;;;;;18.15;11.57;;;29.50;99.90;;;;;;4150378;28;20141;-67
2021/08/22 00:31:13;;;;;;;12.50;11.07;;;29.50;99.90;;;;;;4170143;28;20108;-68
2021/08/22 00:33:22;;;;;;;16.80;10.73;;;29.60;99.90;;;;;;4154314;28;20042;-69
2021/08/22 00:35:36;;;;;;;14.48;11.65;;;29.60;99.90;;;;;;4171013;28;20431;-71
2021/08/22 00:38:01;;;;;;;15.95;11.57;;;29.60;99.90;;;;;;4172173;28;20042;-68
2021/08/22 00:40:24;;;;;;;15.20;10.98;;;29.70;99.90;;;;;;4164495;28;20117;-69
2021/08/22 00:42:33;;;;;;;15.65;12.10;;;29.70;99.90;;;;;;4147360;28;20061;-69
2021/08/22 00:44:38;;;;;;;14.90;10.77;;;29.80;99.90;;;;;;4147529;28;20452;-68
2021/08/22 00:46:43;;;;;;;17.02;11.85;;;29.80;99.90;;;;;;4170140;28;20080;-68
2021/08/22 00:48:47;;;;;;;19.90;12.98;;;29.80;99.90;;;;;;4173207;28;20084;-70
2021/08/22 00:50:59;;;;;;;19.27;11.32;;;29.90;99.90;;;;;;4176945;28;20067;-69
2021/08/22 00:53:04;;;;;;;15.90;10.68;;;30.00;99.90;;;;;;4179865;28;20046;-71
2021/08/22 00:55:09;;;;;;;14.65;10.35;;;30.00;99.90;;;;;;4185993;28;20136;-72
2021/08/22 00:57:14;;;;;;;12.77;10.30;;;30.00;99.90;;;;;;4156502;28;20089;-69
2021/08/22 00:59:19;;;;;;;13.30;10.73;;;30.00;99.90;;;;;;4183087;28;20064;-69
2021/08/22 01:01:25;;;;;;;14.90;10.50;;;30.00;99.90;;;;;;4175788;28;20064;-68
2021/08/22 01:03:55;;;;;;;15.15;10.77;;;30.00;99.90;;;;;;4187049;28;20140;-69
2021/08/22 01:06:09;;;;;;;13.93;10.00;;;30.00;99.90;;;;;;4178245;28;20109;-68
2021/08/22 01:08:37;;;;;;;13.07;9.57;;;30.10;99.90;;;;;;4185098;28;20041;-69
2021/08/22 01:10:42;;;;;;;14.20;9.95;;;30.20;99.90;;;;;;4173567;28;20052;-69
2021/08/22 01:12:53;;;;;;;13.80;9.65;;;30.20;99.90;;;;;;4172920;28;20045;-68
2021/08/22 01:15:04;;;;;;;15.70;10.07;;;30.30;99.90;;;;;;4176572;28;20350;-67
2021/08/22 01:17:09;;;;;;;12.05;9.18;;;30.40;99.90;;;;;;4171273;28;20068;-69
2021/08/22 01:19:25;;;;;;;11.93;9.77;;;30.40;99.90;;;;;;4171522;28;20140;-68
2021/08/22 01:21:33;;;;;;;12.52;9.30;;;30.50;99.90;;;;;;4173550;28;20113;-68
2021/08/22 01:23:44;;;;;;;12.85;9.40;;;30.60;99.90;;;;;;4188277;28;20489;-68
2021/08/22 01:25:48;;;;;;;11.85;9.50;;;30.60;99.90;;;;;;4174029;28;20047;-68
2021/08/22 01:27:53;;;;;;;13.57;10.00;;;30.60;99.90;;;;;;4174590;28;20053;-69
2021/08/22 01:30:05;;;;;;;12.68;9.52;;;30.60;99.90;;;;;;4175832;28;20045;-69
2021/08/22 01:32:10;;;;;;;13.93;9.57;;;30.70;99.90;;;;;;4196267;28;20044;-71
2021/08/22 01:34:15;;;;;;;12.50;9.27;;;30.70;99.90;;;;;;4175276;28;20041;-69
2021/08/22 01:36:21;;;;;;;11.75;8.90;;;30.80;99.90;;;;;;4198990;28;20037;-70
2021/08/22 01:38:26;;;;;;;11.52;9.38;;;30.80;99.90;;;;;;4192424;28;20040;-69
2021/08/22 01:40:32;;;;;;;9.82;8.75;;;30.90;99.90;;;;;;4177220;28;20048;-68
2021/08/22 01:42:38;;;;;;;12.65;9.07;;;30.90;99.90;;;;;;4177946;28;20546;-70
2021/08/22 01:44:47;;;;;;;24.92;9.27;;;31.00;99.90;;;;;;4175416;28;20045;-69
2021/08/22 01:47:05;;;;;;;14.50;9.35;;;31.00;99.90;;;;;;4194279;28;20057;-71
2021/08/22 01:49:14;;;;;;;11.73;9.15;;;31.10;99.90;;;;;;4197881;28;20045;-71
2021/08/22 01:51:19;;;;;;;13.48;9.50;;;31.10;99.90;;;;;;4176004;28;20052;-69
2021/08/22 01:53:32;;;;;;;15.23;9.88;;;31.10;99.90;;;;;;4176554;28;20033;-70
2021/08/22 01:55:36;;;;;;;14.68;9.05;;;31.20;99.90;;;;;;4178180;28;20068;-67
2021/08/22 01:57:43;;;;;;;11.88;9.27;;;31.20;99.90;;;;;;4175596;28;20041;-68
2021/08/22 01:59:47;;;;;;;11.48;9.07;;;31.20;99.90;;;;;;4152114;28;20045;-67
2021/08/22 02:01:52;;;;;;;13.10;8.95;;;31.30;99.90;;;;;;4171452;28;20045;-69
2021/08/22 02:04:17;;;;;;;13.77;9.02;;;31.40;99.90;;;;;;4177062;28;20068;-69
2021/08/22 02:06:31;;;;;;;12.07;9.13;;;31.40;99.90;;;;;;4174855;28;20049;-68
2021/08/22 02:08:37;;;;;;;11.63;8.57;;;31.50;99.90;;;;;;4181665;28;20573;-69
2021/08/22 02:10:52;;;;;;;10.77;9.02;;;31.50;99.90;;;;;;4181381;28;20037;-68
2021/08/22 02:12:59;;;;;;;12.48;8.77;;;31.60;99.90;;;;;;4147961;28;20065;-70
2021/08/22 02:15:27;;;;;;;10.65;9.00;;;31.60;99.90;;;;;;4186556;28;20111;-70
2021/08/22 02:17:42;;;;;;;11.55;8.18;;;31.70;99.90;;;;;;4160922;28;20062;-69
2021/08/22 02:19:47;;;;;;;12.65;8.65;;;31.70;99.90;;;;;;4145958;28;20046;-67
2021/08/22 02:21:52;;;;;;;13.98;9.45;;;31.70;99.90;;;;;;4157653;28;20046;-69
2021/08/22 02:23:57;;;;;;;9.70;8.35;;;31.80;99.90;;;;;;4175833;28;20064;-69
2021/08/22 02:26:02;;;;;;;10.60;8.07;;;31.80;99.30;;;;;;4178023;28;20542;-69
2021/08/22 02:28:06;;;;;;;12.85;8.43;;;31.90;98.30;;;;;;4179443;28;20075;-69
2021/08/22 02:30:10;;;;;;;10.45;7.78;;;31.80;98.60;;;;;;4158488;28;20085;-70
2021/08/22 02:32:15;;;;;;;11.85;8.73;;;31.90;98.50;;;;;;4178750;28;20041;-69
2021/08/22 02:34:20;;;;;;;14.50;8.50;;;32.00;98.60;;;;;;4181697;28;20132;-69
2021/08/22 02:36:26;;;;;;;9.45;8.13;;;32.00;97.60;;;;;;4175598;28;20053;-69
2021/08/22 02:38:30;;;;;;;11.13;8.18;;;32.10;97.50;;;;;;4162440;28;20049;-69
2021/08/22 02:40:35;;;;;;;10.25;8.15;;;32.10;97.30;;;;;;4172105;28;20515;-69
2021/08/22 02:42:39;;;;;;;10.48;7.97;;;32.20;97.00;;;;;;4176548;28;20044;-70
2021/08/22 02:44:44;;;;;;;11.93;8.40;;;32.20;96.70;;;;;;4180705;28;20060;-73
2021/08/22 02:46:49;;;;;;;12.65;9.20;;;32.10;96.10;;;;;;4177614;28;20131;-71
2021/08/22 02:48:56;;;;;;;12.32;8.45;;;32.00;96.50;;;;;;4165231;28;20054;-69
2021/08/22 02:51:02;;;;;;;10.45;8.25;;;32.10;96.60;;;;;;4171772;28;20116;-70
2021/08/22 02:53:10;;;;;;;10.52;8.07;;;32.20;96.50;;;;;;4177910;28;20048;-70
2021/08/22 02:55:14;;;;;;;10.77;8.68;;;32.30;96.40;;;;;;4183943;28;20105;-70
2021/08/22 02:57:19;;;;;;;11.80;8.05;;;32.40;96.60;;;;;;4158545;28;20049;-70
2021/08/22 02:59:24;;;;;;;14.93;8.05;;;32.50;96.30;;;;;;4177690;28;20089;-68
2021/08/22 03:01:28;;;;;;;12.80;9.18;;;32.50;96.10;;;;;;4169788;28;20041;-69
2021/08/22 03:03:33;;;;;;;12.23;8.45;;;32.60;96.30;;;;;;4177662;28;20052;-68
2021/08/22 03:05:38;;;;;;;11.82;8.52;;;32.60;96.00;;;;;;4153334;28;20049;-72
2021/08/22 03:07:43;;;;;;;11.30;8.70;;;32.50;95.70;;;;;;4177677;28;20045;-70
2021/08/22 03:09:47;;;;;;;13.50;8.63;;;32.60;95.80;;;;;;4176693;28;20045;-70
2021/08/22 03:11:52;;;;;;;13.00;9.30;;;32.60;96.20;;;;;;4170099;28;20112;-68
2021/08/22 03:13:57;;;;;;;11.20;8.02;;;32.70;95.50;;;;;;4170605;28;20046;-69
2021/08/22 03:16:02;;;;;;;10.63;8.48;;;32.70;95.40;;;;;;4169693;28;20075;-69
2021/08/22 03:18:07;;;;;;;13.20;9.02;;;32.80;95.00;;;;;;4170815;28;20060;-69
2021/08/22 03:20:12;;;;;;;15.43;9.18;;;32.90;95.10;;;;;;4169477;28;20053;-70
2021/08/22 03:22:16;;;;;;;13.13;8.38;;;32.90;94.50;;;;;;4164794;28;20480;-69
2021/08/22 03:24:39;;;;;;;10.98;8.60;;;32.90;94.50;;;;;;4155677;28;20591;-69
2021/08/22 03:27:02;;;;;;;11.55;8.48;;;32.90;94.90;;;;;;4158899;28;20140;-69
2021/08/22 03:29:27;;;;;;;14.25;8.45;;;33.00;94.60;;;;;;4192468;28;20047;-68
2021/08/22 03:31:52;;;;;;;12.35;8.88;;;33.00;94.40;;;;;;4183102;28;20083;-69
2021/08/22 03:34:16;;;;;;;14.82;9.15;;;33.00;93.70;;;;;;4188741;28;20048;-69
2021/08/22 03:36:41;;;;;;;11.32;7.95;;;33.00;93.60;;;;;;4186368;28;20045;-69
2021/08/22 03:39:06;;;;;;;12.48;8.35;;;33.10;94.10;;;;;;4180370;28;20131;-69
2021/08/22 03:41:33;;;;;;;10.27;7.97;;;33.20;93.80;;;;;;4179359;28;20096;-69
2021/08/22 03:43:57;;;;;;;12.75;8.43;;;33.30;94.40;;;;;;4179713;28;20068;-70
2021/08/22 03:46:22;;;;;;;12.15;8.73;;;33.30;94.20;;;;;;4184992;28;20072;-70
2021/08/22 03:48:48;;;;;;;10.57;9.18;;;33.30;94.10;;;;;;4193706;28;20052;-70
2021/08/22 03:51:12;;;;;;;12.68;8.02;;;33.40;94.30;;;;;;4173154;28;20052;-70
2021/08/22 03:53:37;;;;;;;11.70;8.50;;;33.50;93.90;;;;;;4180491;28;20049;-70
2021/08/22 03:56:02;;;;;;;11.45;8.27;;;33.50;94.30;;;;;;4185220;28;20048;-70
2021/08/22 03:58:26;;;;;;;12.18;7.90;;;33.60;94.20;;;;;;4181489;28;20410;-70
2021/08/22 04:00:51;;;;;;;12.45;8.63;;;33.60;93.70;;;;;;4189462;28;20037;-70
2021/08/22 04:03:16;;;;;;;14.43;8.27;;;33.50;93.80;;;;;;4180527;28;20055;-69
2021/08/22 04:05:47;;;;;;;10.55;8.13;;;33.40;93.30;;;;;;4171702;28;20040;-70
2021/08/22 04:08:12;;;;;;;13.77;8.52;;;33.30;93.50;;;;;;4153831;28;20057;-70
2021/08/22 04:10:37;;;;;;;9.63;8.05;;;33.40;93.80;;;;;;4186069;28;20190;-70
2021/08/22 04:13:01;;;;;;;12.23;7.80;;;33.30;94.10;;;;;;4192868;28;20054;-70
2021/08/22 04:15:26;;;;;;;11.82;8.60;;;33.30;94.40;;;;;;4193326;28;20094;-70
2021/08/22 04:17:51;;;;;;;13.75;7.78;;;33.30;94.40;;;;;;4190689;28;20056;-70
2021/08/22 04:20:16;;;;;;;12.55;8.25;;;33.30;94.40;;;;;;4191050;28;20593;-70
2021/08/22 04:22:40;;;;;;;12.75;8.82;;;33.40;94.20;;;;;;4195442;28;20053;-70
2021/08/22 04:25:09;;;;;;;10.95;8.63;;;33.70;93.50;;;;;;4192456;28;20060;-70
2021/08/22 04:27:34;;;;;;;16.20;10.50;;;33.70;92.80;;;;;;4195147;28;20059;-70
2021/08/22 04:29:58;;;;;;;17.98;10.35;;;33.80;93.50;;;;;;4196724;28;20041;-70
2021/08/22 04:32:23;;;;;;;12.30;9.23;;;33.80;93.50;;;;;;4193716;28;20048;-70
2021/08/22 04:34:47;;;;;;;10.80;8.35;;;33.80;93.10;;;;;;4199209;28;20036;-70
2021/08/22 04:37:12;;;;;;;9.98;8.30;;;34.00;92.70;;;;;;4197438;28;20048;-70
2021/08/22 04:39:37;;;;;;;10.65;8.05;;;34.10;92.10;;;;;;4202154;28;20040;-70
2021/08/22 04:42:01;;;;;;;10.07;8.75;;;34.20;91.80;;;;;;4195731;28;20045;-70
2021/08/22 04:44:26;;;;;;;11.52;8.45;;;34.20;90.90;;;;;;4199947;28;20177;-70
2021/08/22 04:46:51;;;;;;;12.85;8.57;;;34.20;91.10;;;;;;4200338;28;20478;-71
2021/08/22 04:49:16;;;;;;;10.82;8.55;;;34.40;90.20;;;;;;4196067;28;20036;-70
2021/08/22 04:51:41;;;;;;;11.07;7.85;;;34.50;89.20;;;;;;4195672;28;20450;-71
2021/08/22 04:54:06;;;;;;;11.18;7.90;;;34.50;88.40;;;;;;4197189;28;20059;-70
2021/08/22 04:56:30;;;;;;;8.65;7.57;;;34.70;85.50;;;;;;4194878;28;20115;-70
2021/08/22 04:58:55;;;;;;;12.15;8.27;;;34.80;85.30;;;;;;4195307;28;20052;-70
2021/08/22 05:01:19;;;;;;;11.43;7.47;;;34.90;82.90;;;;;;4195354;28;20052;-70
2021/08/22 05:03:44;;;;;;;8.95;7.32;;;34.90;82.70;;;;;;4199182;28;20056;-71
2021/08/22 05:06:10;;;;;;;9.27;7.90;;;35.00;82.10;;;;;;4193515;28;20500;-70
2021/08/22 05:08:34;;;;;;;8.98;6.93;;;35.00;79.30;;;;;;4198116;28;20510;-70
2021/08/22 05:10:59;;;;;;;7.80;6.78;;;35.00;77.90;;;;;;4193530;28;20123;-70
2021/08/22 05:13:23;;;;;;;7.55;6.70;;;35.00;78.00;;;;;;4194479;28;20056;-71
2021/08/22 05:15:50;;;;;;;9.05;6.72;;;35.00;77.70;;;;;;4201052;28;20118;-70
2021/08/22 05:18:15;;;;;;;13.85;7.25;;;35.00;79.40;;;;;;4200534;28;20070;-70
2021/08/22 05:20:40;;;;;;;10.02;7.35;;;35.10;80.40;;;;;;4194006;28;20525;-71
2021/08/22 05:23:04;;;;;;;12.70;7.78;;;35.10;80.10;;;;;;4198467;28;20077;-71
2021/08/22 05:25:09;;;;;;;8.48;7.20;;;35.10;79.40;;;;;;4199432;28;20036;-71
2021/08/22 05:27:14;;;;;;;9.60;7.78;;;35.00;78.60;;;;;;4199124;28;20047;-70
2021/08/22 05:29:37;;;;;;;9.05;6.88;;;35.00;79.90;;;;;;4202810;28;20098;-71
2021/08/22 05:31:42;;;;;;;12.68;8.20;;;35.00;79.40;;;;;;4206308;28;20047;-71
2021/08/22 05:33:47;;;;;;;13.18;7.35;;;34.80;79.60;;;;;;4205698;28;20052;-70
2021/08/22 05:35:52;;;;;;;9.50;7.43;;;34.80;79.60;;;;;;4204231;28;20068;-70
2021/08/22 05:37:57;;;;;;;8.25;6.88;;;34.70;80.70;;;;;;4203587;28;20052;-70
2021/08/22 05:40:01;;;;;;;8.68;7.03;;;34.70;80.20;;;;;;4202862;28;20048;-70
2021/08/22 05:42:08;;;;;;;8.10;7.10;;;34.80;78.20;;;;;;4201463;28;20033;-71
2021/08/22 05:44:13;;;;;;;8.27;7.18;;;34.80;79.80;;;;;;4203468;28;20048;-69
2021/08/22 05:46:17;;;;;;;8.85;6.55;;;34.80;78.50;;;;;;4200921;28;20076;-70
2021/08/22 05:48:22;;;;;;;8.13;6.80;;;34.80;78.30;;;;;;4182915;28;20584;-70
2021/08/22 05:50:26;;;;;;;7.82;6.72;;;35.00;78.30;;;;;;4202314;28;20045;-70
2021/08/22 05:52:36;;;;;;;8.60;6.53;;;35.10;78.00;;;;;;4199719;28;20040;-70
2021/08/22 05:54:40;;;;;;;10.32;6.38;;;35.20;77.40;;;;;;4202384;28;20064;-69
2021/08/22 05:56:45;;;;;;;8.43;6.28;;;35.20;79.60;;;;;;4197971;28;20523;-69
2021/08/22 05:58:50;;;;;;;9.77;6.63;;;35.40;78.80;;;;;;4201847;28;20040;-69
2021/08/22 06:00:54;;;;;;;9.52;6.60;;;35.40;77.80;;;;;;4199381;28;20144;-70
2021/08/22 06:02:59;;;;;;;8.80;6.30;;;35.40;77.70;;;;;;4200756;28;20040;-69
2021/08/22 06:05:05;;;;;;;9.38;6.40;;;35.40;79.50;;;;;;4183777;28;20451;-69
2021/08/22 06:07:09;;;;;;;8.52;5.93;;;35.40;78.70;;;;;;4182799;28;20036;-69
2021/08/22 06:09:14;;;;;;;11.55;6.50;;;35.50;78.80;;;;;;4198876;28;20090;-70
2021/08/22 06:11:18;;;;;;;7.32;5.68;;;35.50;78.20;;;;;;4198442;28;20036;-69
2021/08/22 06:13:22;;;;;;;6.97;5.80;;;35.60;77.90;;;;;;4199684;28;20502;-70
2021/08/22 06:15:27;;;;;;;8.68;6.10;;;35.70;77.30;;;;;;4182770;28;20495;-68
2021/08/22 06:17:31;;;;;;;8.27;6.55;;;35.80;77.10;;;;;;4179319;28;20106;-63
2021/08/22 06:19:36;;;;;;;9.27;6.25;;;35.90;76.40;;;;;;4195998;28;20048;-65
2021/08/22 06:21:41;;;;;;;8.05;5.70;;;35.90;76.80;;;;;;4196441;28;20048;-65
2021/08/22 06:23:45;;;;;;;9.13;6.85;;;35.80;77.00;;;;;;4195076;28;20515;-66
2021/08/22 06:25:50;;;;;;;7.72;5.93;;;35.90;76.90;;;;;;4195232;28;20458;-64
2021/08/22 06:27:54;;;;;;;8.48;6.00;;;36.10;76.90;;;;;;4194239;28;20045;-66
2021/08/22 06:30:00;;;;;;;17.10;6.50;;;36.10;76.30;;;;;;4194965;28;20546;-66
2021/08/22 06:32:08;;;;;;;8.93;6.25;;;36.20;75.80;;;;;;4194848;28;20051;-67
2021/08/22 06:34:12;;;;;;;14.20;6.20;;;36.20;75.00;;;;;;4191466;28;20052;-68
2021/08/22 06:36:17;;;;;;;9.95;6.32;;;36.20;74.50;;;;;;4180813;28;20094;-67
2021/08/22 06:38:21;;;;;;;10.18;6.18;;;36.20;75.70;;;;;;4197656;28;20498;-65
2021/08/22 06:40:26;;;;;;;7.93;6.23;;;36.40;74.60;;;;;;4195212;28;20052;-67
2021/08/22 06:42:31;;;;;;;9.48;5.40;;;36.60;73.80;;;;;;4165376;28;20169;-68
2021/08/22 06:44:39;;;;;;;7.50;5.68;;;36.60;73.50;;;;;;4195887;28;20033;-69
2021/08/22 06:46:45;;;;;;;7.80;5.97;;;36.60;73.10;;;;;;4194076;28;20056;-67
2021/08/22 06:48:49;;;;;;;7.95;5.63;;;36.50;73.40;;;;;;4194374;28;20044;-67
2021/08/22 06:50:54;;;;;;;7.82;5.60;;;36.50;73.40;;;;;;4194286;28;20453;-66
2021/08/22 06:52:58;;;;;;;8.85;6.13;;;36.30;73.20;;;;;;4177644;28;20029;-66
2021/08/22 06:55:03;;;;;;;9.48;5.82;;;36.40;73.50;;;;;;4194668;28;20094;-67
2021/08/22 06:57:08;;;;;;;9.27;5.22;;;36.30;73.30;;;;;;4199121;28;20028;-67
2021/08/22 06:59:13;;;;;;;8.07;5.45;;;36.20;73.50;;;;;;4203015;28;20048;-66
2021/08/22 07:01:17;;;;;;;7.40;5.53;;;36.10;74.00;;;;;;4198383;28;20044;-66
2021/08/22 07:03:22;;;;;;;7.70;5.55;;;36.00;74.30;;;;;;4203834;28;20498;-67
2021/08/22 07:05:27;;;;;;;7.25;4.97;;;36.00;74.00;;;;;;4202608;28;20048;-66
2021/08/22 07:07:32;;;;;;;8.63;5.22;;;36.00;72.00;;;;;;4195190;28;20050;-66
2021/08/22 07:09:36;;;;;;;6.57;4.53;;;36.20;72.90;;;;;;4202952;28;20036;-66
2021/08/22 07:11:41;;;;;;;7.95;5.50;;;36.40;71.20;;;;;;4198454;28;20044;-67
2021/08/22 07:13:45;;;;;;;5.85;4.65;;;36.50;70.70;;;;;;4202373;28;20052;-67
2021/08/22 07:15:50;;;;;;;6.88;4.55;;;36.50;70.30;;;;;;4199866;28;20554;-69
2021/08/22 07:17:54;;;;;;;6.30;5.32;;;36.30;70.90;;;;;;4183136;28;20454;-66
2021/08/22 07:19:59;;;;;;;7.20;5.15;;;36.20;72.00;;;;;;4178215;28;20052;-66
2021/08/22 07:22:04;;;;;;;6.82;4.93;;;36.10;72.70;;;;;;4192001;28;20063;-65
2021/08/22 07:24:13;;;;;;;9.15;6.40;;;36.00;73.80;;;;;;4194663;28;20076;-66
2021/08/22 07:26:18;;;;;;;6.82;5.90;;;36.00;75.70;;;;;;4176455;28;20106;-67
2021/08/22 07:28:22;;;;;;;7.68;6.10;;;35.90;76.00;;;;;;4194700;28;20044;-67
2021/08/22 07:30:26;;;;;;;8.60;5.97;;;35.90;76.40;;;;;;4174289;28;20143;-66
2021/08/22 07:32:31;;;;;;;9.88;6.82;;;36.10;76.30;;;;;;4194076;28;20113;-66
2021/08/22 07:34:39;;;;;;;10.15;6.25;;;36.30;75.90;;;;;;4193782;28;20542;-66
2021/08/22 07:36:43;;;;;;;8.00;5.82;;;36.50;75.50;;;;;;4178036;28;20048;-66
2021/08/22 07:38:47;;;;;;;8.32;5.47;;;36.60;75.10;;;;;;4196080;28;20056;-66
2021/08/22 07:40:52;;;;;;;9.07;5.53;;;36.60;74.10;;;;;;4193545;28;20144;-66
2021/08/22 07:42:56;;;;;;;7.00;5.05;;;36.60;72.40;;;;;;4192364;28;20109;-66
2021/08/22 07:45:01;;;;;;;8.38;5.57;;;36.60;71.90;;;;;;4194103;28;20041;-66
2021/08/22 07:47:06;;;;;;;6.70;5.45;;;36.70;72.10;;;;;;4176240;28;20773;-66
2021/08/22 07:49:10;;;;;;;6.32;5.68;;;36.50;73.10;;;;;;4193006;28;20068;-67
2021/08/22 07:51:16;;;;;;;7.97;6.03;;;36.40;73.90;;;;;;4192688;28;20089;-67
2021/08/22 07:53:20;;;;;;;7.53;6.63;;;36.50;74.40;;;;;;4195685;28;20071;-64
2021/08/22 07:55:25;;;;;;;6.80;6.10;;;36.60;75.30;;;;;;4191078;28;20124;-66
2021/08/22 07:57:31;;;;;;;7.88;6.40;;;36.60;74.70;;;;;;4191813;28;20051;-64
2021/08/22 07:59:36;;;;;;;8.45;6.32;;;36.80;75.30;;;;;;4191740;28;20043;-67
2021/08/22 08:01:40;;;;;;;7.72;6.25;;;36.80;75.00;;;;;;4191120;28;20084;-68
2021/08/22 08:03:45;;;;;;;8.60;6.45;;;36.80;75.00;;;;;;4185566;28;20051;-67
2021/08/22 08:05:50;;;;;;;11.23;6.13;;;36.70;75.10;;;;;;4191925;28;20044;-67
2021/08/22 08:07:56;;;;;;;7.90;6.18;;;36.70;75.60;;;;;;4191305;28;20487;-68
2021/08/22 08:10:00;;;;;;;6.65;5.95;;;36.60;75.40;;;;;;4191328;28;20060;-67
2021/08/22 08:12:06;;;;;;;7.63;5.45;;;36.50;75.00;;;;;;4189194;28;20075;-66
2021/08/22 08:14:11;;;;;;;8.35;5.57;;;36.50;75.20;;;;;;4175262;28;20037;-66
2021/08/22 08:16:17;;;;;;;7.20;5.55;;;36.50;75.40;;;;;;4191885;28;20060;-67
2021/08/22 08:18:23;;;;;;;7.32;5.50;;;36.40;75.50;;;;;;4191724;28;20044;-67
2021/08/22 08:20:27;;;;;;;6.90;6.13;;;36.40;75.50;;;;;;4188932;28;20075;-68
2021/08/22 08:22:32;;;;;;;9.23;5.50;;;36.30;75.30;;;;;;4193135;28;20041;-68
2021/08/22 08:24:37;;;;;;;6.97;5.32;;;36.40;74.80;;;;;;4173426;28;20102;-66
2021/08/22 08:26:41;;;;;;;6.55;5.57;;;36.40;74.40;;;;;;4191722;28;20048;-67
2021/08/22 08:28:46;;;;;;;6.68;5.50;;;36.30;73.60;;;;;;4172355;28;20526;-67
2021/08/22 08:30:51;;;;;;;8.30;5.30;;;36.30;73.90;;;;;;4191282;28;20080;-66
2021/08/22 08:32:55;;;;;;;8.15;5.85;;;36.20;74.20;;;;;;4189557;28;20049;-66
2021/08/22 08:35:00;;;;;;;8.07;5.55;;;36.20;74.40;;;;;;4173239;28;20471;-67
2021/08/22 08:37:05;;;;;;;6.28;5.30;;;36.20;74.00;;;;;;4190960;28;20109;-67
2021/08/22 08:39:10;;;;;;;6.85;5.55;;;36.20;74.30;;;;;;4191546;28;20441;-66
2021/08/22 08:41:14;;;;;;;6.15;5.32;;;36.10;74.60;;;;;;4190297;28;20088;-66
2021/08/22 08:43:21;;;;;;;7.95;5.57;;;36.10;74.60;;;;;;4191115;28;20044;-66
2021/08/22 08:45:40;;;;;;;9.23;5.95;;;36.10;75.10;;;;;;4189067;28;20032;-66
2021/08/22 08:47:47;;;;;;;8.32;6.15;;;36.10;75.30;;;;;;4192204;28;20525;-66
2021/08/22 08:49:51;;;;;;;9.02;5.53;;;36.10;75.80;;;;;;4160658;28;20041;-66
2021/08/22 08:52:20;;;;;;;8.40;5.82;;;36.00;76.80;;;;;;4188986;28;20052;-66
2021/08/22 08:54:24;;;;;;;10.88;5.43;;;36.10;77.10;;;;;;4192493;28;20041;-66
2021/08/22 08:56:32;;;;;;;6.65;5.50;;;36.00;77.20;;;;;;4190644;28;20079;-66
2021/08/22 08:58:36;;;;;;;6.75;5.45;;;36.00;77.70;;;;;;4194052;28;20051;-67
2021/08/22 09:00:46;;;;;;;6.57;4.90;;;35.90;78.10;;;;;;4192839;28;20105;-66
2021/08/22 09:02:50;;;;;;;7.00;4.95;;;35.90;78.40;;;;;;4173490;28;20114;-66
2021/08/22 09:05:10;;;;;;;6.57;5.15;;;35.80;78.50;;;;;;4190363;28;20117;-66
2021/08/22 09:07:26;;;;;;;6.78;4.93;;;35.80;78.30;;;;;;4189223;28;20082;-66
2021/08/22 09:09:43;;;;;;;7.13;5.20;;;35.70;78.00;;;;;;4194036;28;20044;-66
2021/08/22 09:12:06;;;;;;;6.45;4.85;;;35.60;77.80;;;;;;4192382;28;20086;-66
2021/08/22 09:14:34;;;;;;;6.00;4.43;;;35.60;77.40;;;;;;4193548;28;20075;-66
2021/08/22 09:16:54;;;;;;;6.30;4.57;;;35.50;77.50;;;;;;4190504;28;20084;-66
2021/08/22 09:19:22;;;;;;;7.57;4.70;;;35.40;77.40;;;;;;4194369;28;20515;-66
2021/08/22 09:21:59;;;;;;;5.95;4.43;;;35.40;76.90;;;;;;4191317;28;20456;-66
2021/08/22 09:24:19;;;;;;;7.30;4.60;;;35.40;76.80;;;;;;4191870;28;20044;-66
2021/08/22 09:26:50;;;;;;;4.90;4.13;;;35.50;76.50;;;;;;4195374;28;20162;-67
2021/08/22 09:29:10;;;;;;;10.05;5.65;;;35.50;76.70;;;;;;4192542;28;20047;-66
2021/08/22 09:31:27;;;;;;;8.68;5.25;;;35.50;76.90;;;;;;4192026;28;20049;-66
2021/08/22 09:33:56;;;;;;;7.80;6.40;;;35.60;77.00;;;;;;4194753;28;20127;-66
2021/08/22 09:36:16;;;;;;;9.23;6.20;;;35.60;77.40;;;;;;4192036;28;20052;-66
2021/08/22 09:38:23;;;;;;;10.20;5.03;;;35.60;77.80;;;;;;4193502;28;20465;-67
2021/08/22 09:40:52;;;;;;;6.00;4.55;;;35.60;78.10;;;;;;4192669;28;20466;-66
2021/08/22 09:43:12;;;;;;;6.35;4.43;;;35.60;78.10;;;;;;4191228;28;20564;-67
2021/08/22 09:45:41;;;;;;;6.18;4.68;;;35.60;77.20;;;;;;4192180;28;20045;-66
2021/08/22 09:48:02;;;;;;;6.53;5.15;;;35.50;77.70;;;;;;4192515;28;20118;-66
2021/08/22 09:50:32;;;;;;;5.32;4.20;;;35.50;77.70;;;;;;4193390;28;20040;-66
2021/08/22 09:52:51;;;;;;;6.65;4.50;;;35.50;77.70;;;;;;4190937;28;20059;-66
2021/08/22 09:55:21;;;;;;;7.38;4.72;;;35.40;77.70;;;;;;4193125;28;20081;-67
2021/08/22 09:57:41;;;;;;;6.80;4.20;;;35.30;78.30;;;;;;4191781;28;20399;-67
2021/08/22 10:00:06;;;;;;;8.40;5.25;;;35.20;78.50;;;;;;4195585;28;20048;-67
2021/08/22 10:02:30;;;;;;;9.35;4.97;;;35.20;78.60;;;;;;4192104;28;20045;-67
2021/08/22 10:04:57;;;;;;;7.93;5.72;;;35.10;78.20;;;;;;4168581;28;20038;-66
2021/08/22 10:07:13;;;;;;;9.85;5.40;;;35.10;78.30;;;;;;4190771;28;20044;-66
2021/08/22 10:09:25;;;;;;;6.72;5.18;;;35.00;78.30;;;;;;4175944;28;20411;-67
2021/08/22 10:11:39;;;;;;;7.03;5.43;;;35.00;78.60;;;;;;4191594;28;20079;-66
2021/08/22 10:13:43;;;;;;;7.90;4.80;;;34.90;79.10;;;;;;4174194;28;20049;-66
2021/08/22 10:16:07;;;;;;;8.55;4.95;;;34.90;79.90;;;;;;4192089;28;20566;-67
2021/08/22 10:18:19;;;;;;;7.32;4.95;;;34.90;80.00;;;;;;4173561;28;20052;-67
2021/08/22 10:20:42;;;;;;;6.93;4.88;;;34.90;79.90;;;;;;4191167;28;20040;-67
2021/08/22 10:22:49;;;;;;;7.45;5.45;;;34.90;79.90;;;;;;4193843;28;20102;-67
2021/08/22 10:25:00;;;;;;;7.55;4.70;;;35.00;79.80;;;;;;4191681;28;20119;-67
2021/08/22 10:27:12;;;;;;;12.05;5.78;;;34.90;79.80;;;;;;4189692;28;20048;-66
2021/08/22 10:29:26;;;;;;;10.15;5.07;;;34.90;79.60;;;;;;4196280;28;20048;-66
2021/08/22 10:31:49;;;;;;;7.43;4.85;;;34.90;80.00;;;;;;4192761;28;20051;-66
2021/08/22 10:34:12;;;;;;;10.68;5.07;;;34.80;81.60;;;;;;4184866;28;20056;-68
2021/08/22 10:36:35;;;;;;;6.50;4.88;;;34.80;82.80;;;;;;4193235;28;20480;-67
2021/08/22 10:38:40;;;;;;;8.23;5.18;;;34.70;82.80;;;;;;4195136;28;20045;-66
2021/08/22 10:40:44;;;;;;;9.50;6.53;;;34.70;83.80;;;;;;4176981;28;20431;-66
2021/08/22 10:42:50;;;;;;;6.57;4.85;;;34.60;83.90;;;;;;4193844;28;20047;-66
2021/08/22 10:44:55;;;;;;;9.05;5.75;;;34.60;83.60;;;;;;4177348;28;20590;-65
2021/08/22 10:47:10;;;;;;;11.90;5.53;;;34.60;84.30;;;;;;4192091;28;20071;-68
2021/08/22 10:49:15;;;;;;;11.52;5.68;;;34.60;84.30;;;;;;4195432;28;20098;-68
2021/08/22 10:51:20;;;;;;;11.00;7.20;;;34.50;84.10;;;;;;4158393;28;20038;-68
2021/08/22 10:53:38;;;;;;;12.65;8.07;;;34.50;84.60;;;;;;4195129;28;20538;-67
2021/08/22 10:55:44;;;;;;;15.93;8.20;;;34.50;85.10;;;;;;4193967;28;20067;-67
2021/08/22 10:57:49;;;;;;;11.73;7.18;;;34.40;85.50;;;;;;4192095;28;20151;-65
2021/08/22 11:00:19;;;;;;;8.80;6.10;;;34.40;84.80;;;;;;4194005;28;20048;-67
2021/08/22 11:02:24;;;;;;;6.25;5.30;;;34.30;83.50;;;;;;4193350;28;20102;-68
2021/08/22 11:04:29;;;;;;;8.25;5.45;;;34.30;81.20;;;;;;4194375;28;20057;-67
2021/08/22 11:06:34;;;;;;;7.55;5.88;;;34.20;81.10;;;;;;4190081;28;20113;-67
2021/08/22 11:08:38;;;;;;;8.93;5.78;;;34.20;80.80;;;;;;4193800;28;20036;-67
2021/08/22 11:10:57;;;;;;;9.65;5.80;;;34.10;79.80;;;;;;4195682;28;20059;-66
2021/08/22 11:13:01;;;;;;;6.78;5.53;;;34.10;80.20;;;;;;4194553;28;20044;-65
2021/08/22 11:15:06;;;;;;;9.07;5.45;;;34.10;80.10;;;;;;4191648;28;20052;-66
2021/08/22 11:17:13;;;;;;;11.40;6.38;;;34.00;79.90;;;;;;4179231;28;20082;-67
2021/08/22 11:19:22;;;;;;;9.40;6.97;;;34.00;80.10;;;;;;4179489;28;20061;-67